createdAt,value
2019-03-15T00:00:09.009Z,991.66
2019-03-15T00:01:08.975Z,991.65
2019-03-15T00:02:08.859Z,991.70
2019-03-15T00:03:08.804Z,991.78
2019-03-15T00:04:08.754Z,991.77
2019-03-15T00:05:08.705Z,991.81
2019-03-15T00:06:08.661Z,991.83
2019-03-15T00:07:08.588Z,991.80
2019-03-15T00:08:08.517Z,991.82
2019-03-15T00:09:08.480Z,991.85
2019-03-15T00:10:08.415Z,991.87
2019-03-15T00:11:08.438Z,991.91
2019-03-15T00:12:08.317Z,991.85
2019-03-15T00:13:08.255Z,991.88
2019-03-15T00:14:08.213Z,991.87
2019-03-15T00:15:08.135Z,991.84
2019-03-15T00:16:08.114Z,991.84
2019-03-15T00:17:08.024Z,991.91
2019-03-15T00:19:39.534Z,991.93
2019-03-15T00:20:39.500Z,991.92
2019-03-15T00:21:39.414Z,991.94
2019-03-15T00:22:39.357Z,991.93
2019-03-15T00:23:39.309Z,991.92
2019-03-15T00:24:39.254Z,991.91
2019-03-15T00:25:39.218Z,991.82
2019-03-15T00:26:39.139Z,991.90
2019-03-15T00:27:39.084Z,991.96
2019-03-15T00:28:39.028Z,991.88
2019-03-15T00:29:38.974Z,991.89
2019-03-15T00:30:38.943Z,991.94
2019-03-15T00:31:38.860Z,991.96
2019-03-15T00:32:38.810Z,992.01
2019-03-15T00:33:38.752Z,991.92
2019-03-15T00:34:38.697Z,991.93
2019-03-15T00:35:38.661Z,991.94
2019-03-15T00:36:38.587Z,991.90
2019-03-15T00:37:38.532Z,991.91
2019-03-15T00:38:38.474Z,991.94
2019-03-15T00:39:38.420Z,991.91
2019-03-15T00:40:38.520Z,991.94
2019-03-15T00:41:38.311Z,992.00
2019-03-15T00:42:38.253Z,992.01
2019-03-15T00:43:38.197Z,992.00
2019-03-15T00:44:38.139Z,991.98
2019-03-15T00:45:38.087Z,992.02
2019-03-15T00:46:38.051Z,992.06
2019-03-15T00:47:37.978Z,992.09
2019-03-15T00:48:37.924Z,992.08
2019-03-15T00:49:37.865Z,992.13
2019-03-15T00:50:37.816Z,992.11
2019-03-15T00:51:37.780Z,992.11
2019-03-15T00:52:37.704Z,992.07
2019-03-15T00:53:37.640Z,992.00
2019-03-15T00:54:37.591Z,992.02
2019-03-15T00:55:37.534Z,992.01
2019-03-15T00:56:37.502Z,992.06
2019-03-15T00:57:37.422Z,992.10
2019-03-15T00:58:37.366Z,992.11
2019-03-15T00:59:37.311Z,992.12
2019-03-15T01:00:37.256Z,992.09
2019-03-15T01:01:37.221Z,992.10
2019-03-15T01:02:37.145Z,992.10
2019-03-15T01:03:37.085Z,992.14
2019-03-15T01:04:37.035Z,992.14
2019-03-15T01:05:36.978Z,992.14
2019-03-15T01:06:36.949Z,992.12
2019-03-15T01:07:36.864Z,992.08
2019-03-15T01:08:36.815Z,992.11
2019-03-15T01:09:36.758Z,992.10
2019-03-15T01:10:36.703Z,992.08
2019-03-15T01:11:36.671Z,992.10
2019-03-15T01:12:36.591Z,992.11
2019-03-15T01:13:37.066Z,992.15
2019-03-15T01:14:36.485Z,992.18
2019-03-15T01:15:36.428Z,992.20
2019-03-15T01:16:36.390Z,992.21
2019-03-15T01:17:36.309Z,992.18
2019-03-15T01:18:36.258Z,992.18
2019-03-15T01:19:36.646Z,992.16
2019-03-15T01:20:36.148Z,992.14
2019-03-15T01:21:36.138Z,992.14
2019-03-15T01:22:36.033Z,992.14
2019-03-15T01:23:35.981Z,992.16
2019-03-15T01:24:35.921Z,992.12
2019-03-15T01:25:35.868Z,992.15
2019-03-15T01:26:35.840Z,992.13
2019-03-15T01:27:35.756Z,992.11
2019-03-15T01:28:35.701Z,992.08
2019-03-15T01:29:35.647Z,992.14
2019-03-15T01:30:35.587Z,992.11
2019-03-15T01:31:35.560Z,992.16
2019-03-15T01:32:35.479Z,992.18
2019-03-15T01:33:35.425Z,992.21
2019-03-15T01:34:35.374Z,992.15
2019-03-15T01:35:35.313Z,992.14
2019-03-15T01:36:35.285Z,992.13
2019-03-15T01:37:35.202Z,992.16
2019-03-15T01:38:35.146Z,992.16
2019-03-15T01:39:35.433Z,992.18
2019-03-15T01:40:35.059Z,992.16
2019-03-15T01:41:35.004Z,992.20
2019-03-15T01:42:34.925Z,992.24
2019-03-15T01:43:34.873Z,992.19
2019-03-15T01:44:34.810Z,992.26
2019-03-15T01:45:34.933Z,992.25
2019-03-15T01:46:34.728Z,992.27
2019-03-15T01:47:34.652Z,992.26
2019-03-15T01:48:34.593Z,992.29
2019-03-15T01:49:34.534Z,992.33
2019-03-15T01:50:34.486Z,992.30
2019-03-15T01:51:34.450Z,992.35
2019-03-15T01:52:34.371Z,992.28
2019-03-15T01:53:34.314Z,992.29
2019-03-15T01:54:34.257Z,992.29
2019-03-15T01:55:34.205Z,992.26
2019-03-15T01:56:34.181Z,992.23
2019-03-15T01:57:34.099Z,992.28
2019-03-15T01:58:34.039Z,992.24
2019-03-15T01:59:33.983Z,992.30
2019-03-15T02:00:35.354Z,992.28
2019-03-15T02:01:33.893Z,992.29
2019-03-15T02:02:33.839Z,992.27
2019-03-15T02:03:33.757Z,992.30
2019-03-15T02:04:33.698Z,992.30
2019-03-15T02:05:33.651Z,992.31
2019-03-15T02:06:33.597Z,992.33
2019-03-15T02:07:34.623Z,992.32
2019-03-15T02:08:33.487Z,992.31
2019-03-15T02:09:33.427Z,992.37
2019-03-15T02:10:33.377Z,992.39
2019-03-15T02:11:33.316Z,992.34
2019-03-15T02:12:33.293Z,992.29
2019-03-15T02:13:33.203Z,992.29
2019-03-15T02:14:33.149Z,992.33
2019-03-15T02:15:33.093Z,992.32
2019-03-15T02:16:33.064Z,992.33
2019-03-15T02:17:33.071Z,992.32
2019-03-15T02:18:32.927Z,992.31
2019-03-15T02:19:32.873Z,992.33
2019-03-15T02:20:32.816Z,992.37
2019-03-15T02:21:32.760Z,992.36
2019-03-15T02:22:33.515Z,992.38
2019-03-15T02:23:32.649Z,992.44
2019-03-15T02:24:32.594Z,992.42
2019-03-15T02:25:32.566Z,992.34
2019-03-15T02:26:32.484Z,992.35
2019-03-15T02:27:32.451Z,992.31
2019-03-15T02:28:32.377Z,992.32
2019-03-15T02:29:32.317Z,992.33
2019-03-15T02:30:32.263Z,992.30
2019-03-15T02:31:32.207Z,992.33
2019-03-15T02:32:32.178Z,992.33
2019-03-15T02:33:33.445Z,992.27
2019-03-15T02:34:32.036Z,992.24
2019-03-15T02:35:31.987Z,992.27
2019-03-15T02:36:31.930Z,992.24
2019-03-15T02:37:31.946Z,992.19
2019-03-15T02:38:31.814Z,992.21
2019-03-15T02:39:31.764Z,992.19
2019-03-15T02:40:31.709Z,992.23
2019-03-15T02:41:32.069Z,992.22
2019-03-15T02:42:31.628Z,992.25
2019-03-15T02:43:31.546Z,992.19
2019-03-15T02:44:31.572Z,992.24
2019-03-15T02:45:32.452Z,992.19
2019-03-15T02:46:31.376Z,992.22
2019-03-15T02:47:31.344Z,992.19
2019-03-15T02:48:31.266Z,992.17
2019-03-15T02:49:31.208Z,992.22
2019-03-15T02:50:31.154Z,992.30
2019-03-15T02:51:31.099Z,992.30
2019-03-15T02:52:31.068Z,992.28
2019-03-15T02:53:30.989Z,992.28
2019-03-15T02:54:30.938Z,992.30
2019-03-15T02:55:30.881Z,992.31
2019-03-15T02:56:30.823Z,992.31
2019-03-15T02:57:30.792Z,992.30
2019-03-15T02:58:30.711Z,992.30
2019-03-15T02:59:30.654Z,992.25
2019-03-15T03:00:30.604Z,992.25
2019-03-15T03:01:30.544Z,992.27
2019-03-15T03:02:30.582Z,992.30
2019-03-15T03:03:30.438Z,992.33
2019-03-15T03:04:30.384Z,992.28
2019-03-15T03:05:30.323Z,992.35
2019-03-15T03:06:30.269Z,992.31
2019-03-15T03:07:30.251Z,992.30
2019-03-15T03:08:30.156Z,992.29
2019-03-15T03:09:30.101Z,992.30
2019-03-15T03:10:30.055Z,992.34
2019-03-15T03:11:29.990Z,992.29
2019-03-15T03:12:29.936Z,992.29
2019-03-15T03:13:29.909Z,992.33
2019-03-15T03:14:30.946Z,992.33
2019-03-15T03:15:29.775Z,992.32
2019-03-15T03:16:29.717Z,992.37
2019-03-15T03:17:29.655Z,992.38
2019-03-15T03:18:29.635Z,992.37
2019-03-15T03:19:29.553Z,992.41
2019-03-15T03:20:29.497Z,992.39
2019-03-15T03:21:29.442Z,992.29
2019-03-15T03:22:29.386Z,992.34
2019-03-15T03:23:30.765Z,992.29
2019-03-15T03:24:29.274Z,992.34
2019-03-15T03:25:29.219Z,992.35
2019-03-15T03:26:29.164Z,992.34
2019-03-15T03:27:29.108Z,992.36
2019-03-15T03:28:29.076Z,992.31
2019-03-15T03:29:28.997Z,992.33
2019-03-15T03:30:28.946Z,992.37
2019-03-15T03:31:28.892Z,992.38
2019-03-15T03:32:28.859Z,992.38
2019-03-15T03:33:28.827Z,992.30
2019-03-15T03:34:28.744Z,992.29
2019-03-15T03:35:28.668Z,992.26
2019-03-15T03:36:28.625Z,992.27
2019-03-15T03:37:28.560Z,992.23
2019-03-15T03:38:28.527Z,992.28
2019-03-15T03:39:28.448Z,992.30
2019-03-15T03:40:29.164Z,992.34
2019-03-15T03:41:28.344Z,992.39
2019-03-15T03:42:28.282Z,992.37
2019-03-15T03:43:28.253Z,992.39
2019-03-15T03:44:28.174Z,992.42
2019-03-15T03:45:28.115Z,992.40
2019-03-15T03:46:28.066Z,992.38
2019-03-15T03:47:28.004Z,992.37
2019-03-15T03:48:27.973Z,992.38
2019-03-15T03:49:27.895Z,992.39
2019-03-15T03:50:27.839Z,992.34
2019-03-15T03:51:27.786Z,992.37
2019-03-15T03:52:27.731Z,992.31
2019-03-15T03:53:27.700Z,992.34
2019-03-15T03:54:27.621Z,992.36
2019-03-15T03:55:27.565Z,992.36
2019-03-15T03:56:27.510Z,992.35
2019-03-15T03:57:27.454Z,992.34
2019-03-15T03:58:27.473Z,992.28
2019-03-15T03:59:27.343Z,992.21
2019-03-15T04:00:27.288Z,992.26
2019-03-15T04:01:27.232Z,992.21
2019-03-15T04:02:27.177Z,992.26
2019-03-15T04:03:27.141Z,992.20
2019-03-15T04:04:27.067Z,992.20
2019-03-15T04:05:27.010Z,992.24
2019-03-15T04:06:26.955Z,992.24
2019-03-15T04:07:26.900Z,992.27
2019-03-15T04:08:26.870Z,992.26
2019-03-15T04:09:26.791Z,992.30
2019-03-15T04:10:26.733Z,992.25
2019-03-15T04:11:26.678Z,992.25
2019-03-15T04:12:26.626Z,992.25
2019-03-15T04:13:26.591Z,992.22
2019-03-15T04:14:26.560Z,992.27
2019-03-15T04:15:26.461Z,992.23
2019-03-15T04:16:26.405Z,992.25
2019-03-15T04:17:26.377Z,992.22
2019-03-15T04:18:26.335Z,992.24
2019-03-15T04:19:26.240Z,992.22
2019-03-15T04:20:26.183Z,992.13
2019-03-15T04:21:26.130Z,992.09
2019-03-15T04:22:26.077Z,992.03
2019-03-15T04:23:26.022Z,992.00
2019-03-15T04:24:25.986Z,992.02
2019-03-15T04:25:25.907Z,992.05
2019-03-15T04:26:25.852Z,992.01
2019-03-15T04:27:25.796Z,992.01
2019-03-15T04:28:25.744Z,991.94
2019-03-15T04:29:25.712Z,991.98
2019-03-15T04:30:25.643Z,991.95
2019-03-15T04:31:25.578Z,991.97
2019-03-15T04:32:25.523Z,991.96
2019-03-15T04:33:25.469Z,992.00
2019-03-15T04:34:28.256Z,992.04
2019-03-15T04:35:25.361Z,992.02
2019-03-15T04:36:25.302Z,992.04
2019-03-15T04:37:25.247Z,992.07
2019-03-15T04:38:25.190Z,992.07
2019-03-15T04:39:25.163Z,992.14
2019-03-15T04:40:25.071Z,992.08
2019-03-15T04:41:25.023Z,992.11
2019-03-15T04:42:24.970Z,992.17
2019-03-15T04:43:24.918Z,992.19
2019-03-15T04:44:24.886Z,992.20
2019-03-15T04:45:24.806Z,992.20
2019-03-15T04:46:24.747Z,992.21
2019-03-15T04:47:24.698Z,992.25
2019-03-15T04:48:24.644Z,992.26
2019-03-15T04:49:24.606Z,992.21
2019-03-15T04:50:24.534Z,992.20
2019-03-15T04:51:24.472Z,992.15
2019-03-15T04:52:24.415Z,992.18
2019-03-15T04:53:24.363Z,992.19
2019-03-15T04:54:24.334Z,992.25
2019-03-15T04:55:24.252Z,992.21
2019-03-15T04:56:24.197Z,992.22
2019-03-15T04:57:24.141Z,992.24
2019-03-15T04:58:24.086Z,992.29
2019-03-15T04:59:24.415Z,992.25
2019-03-15T05:00:23.976Z,992.27
2019-03-15T05:01:23.924Z,992.31
2019-03-15T05:02:23.865Z,992.25
2019-03-15T05:03:23.810Z,992.27
2019-03-15T05:04:23.784Z,992.25
2019-03-15T05:05:23.695Z,992.20
2019-03-15T05:06:23.657Z,992.23
2019-03-15T05:07:23.591Z,992.17
2019-03-15T05:08:23.589Z,992.12
2019-03-15T05:09:23.497Z,992.08
2019-03-15T05:10:23.425Z,992.11
2019-03-15T05:11:23.370Z,992.10
2019-03-15T05:12:23.315Z,992.12
2019-03-15T05:13:23.259Z,992.10
2019-03-15T05:14:23.228Z,992.08
2019-03-15T05:15:23.148Z,992.12
2019-03-15T05:16:23.098Z,992.15
2019-03-15T05:17:23.039Z,992.11
2019-03-15T05:18:22.982Z,992.08
2019-03-15T05:19:22.963Z,992.06
2019-03-15T05:20:22.873Z,992.01
2019-03-15T05:21:22.819Z,991.95
2019-03-15T05:22:22.761Z,991.97
2019-03-15T05:23:22.710Z,991.94
2019-03-15T05:24:22.658Z,991.92
2019-03-15T05:25:22.619Z,991.93
2019-03-15T05:26:22.540Z,991.92
2019-03-15T05:27:22.489Z,991.86
2019-03-15T05:28:22.439Z,991.88
2019-03-15T05:29:22.382Z,991.83
2019-03-15T05:30:22.345Z,991.84
2019-03-15T05:31:22.268Z,991.84
2019-03-15T05:32:22.211Z,991.82
2019-03-15T05:33:22.159Z,991.86
2019-03-15T05:34:22.107Z,991.87
2019-03-15T05:35:22.072Z,991.84
2019-03-15T05:36:22.005Z,991.82
2019-03-15T05:37:21.933Z,991.81
2019-03-15T05:38:21.883Z,991.81
2019-03-15T05:39:21.828Z,991.84
2019-03-15T05:40:21.795Z,991.82
2019-03-15T05:41:21.720Z,991.83
2019-03-15T05:42:21.660Z,991.79
2019-03-15T05:43:21.593Z,991.77
2019-03-15T05:44:21.551Z,991.72
2019-03-15T05:45:21.518Z,991.76
2019-03-15T05:46:21.444Z,991.75
2019-03-15T05:47:21.387Z,991.74
2019-03-15T05:48:21.328Z,991.75
2019-03-15T05:49:21.277Z,991.75
2019-03-15T05:50:21.246Z,991.75
2019-03-15T05:51:21.170Z,991.78
2019-03-15T05:52:21.123Z,991.80
2019-03-15T05:53:21.059Z,991.78
2019-03-15T05:54:21.003Z,991.76
2019-03-15T05:55:20.974Z,991.69
2019-03-15T05:56:20.898Z,991.71
2019-03-15T05:57:20.845Z,991.68
2019-03-15T05:58:22.064Z,991.62
2019-03-15T05:59:20.751Z,991.64
2019-03-15T06:00:20.693Z,991.63
2019-03-15T06:01:20.624Z,991.61
2019-03-15T06:02:20.588Z,991.59
2019-03-15T06:03:20.513Z,991.55
2019-03-15T06:04:20.454Z,991.54
2019-03-15T06:05:20.399Z,991.55
2019-03-15T06:06:20.352Z,991.55
2019-03-15T06:07:20.315Z,991.60
2019-03-15T06:08:20.240Z,991.64
2019-03-15T06:09:20.181Z,991.67
2019-03-15T06:10:20.127Z,991.72
2019-03-15T06:11:20.078Z,991.71
2019-03-15T06:12:20.044Z,991.73
2019-03-15T06:13:19.959Z,991.75
2019-03-15T06:14:19.908Z,991.73
2019-03-15T06:15:19.855Z,991.80
2019-03-15T06:16:19.800Z,991.88
2019-03-15T06:17:19.766Z,991.83
2019-03-15T06:19:27.789Z,991.69
2019-03-15T06:20:19.606Z,991.71
2019-03-15T06:21:19.534Z,991.68
2019-03-15T06:22:19.493Z,991.65
2019-03-15T06:23:19.450Z,991.66
2019-03-15T06:24:19.375Z,991.59
2019-03-15T06:25:19.321Z,991.57
2019-03-15T06:26:19.266Z,991.55
2019-03-15T06:27:19.198Z,991.56
2019-03-15T06:28:19.176Z,991.55
2019-03-15T06:29:19.086Z,991.52
2019-03-15T06:30:19.057Z,991.46
2019-03-15T06:31:18.996Z,991.43
2019-03-15T06:32:18.923Z,991.39
2019-03-15T06:33:18.916Z,991.41
2019-03-15T06:34:18.870Z,991.39
2019-03-15T06:35:18.798Z,991.42
2019-03-15T06:36:18.719Z,991.41
2019-03-15T06:37:18.668Z,991.38
2019-03-15T06:38:18.634Z,991.31
2019-03-15T06:39:18.544Z,991.33
2019-03-15T06:40:18.610Z,991.33
2019-03-15T06:41:18.427Z,991.35
2019-03-15T06:42:18.405Z,991.30
2019-03-15T06:43:18.374Z,991.30
2019-03-15T06:44:18.313Z,991.35
2019-03-15T06:45:18.214Z,991.36
2019-03-15T06:46:18.180Z,991.40
2019-03-15T06:47:18.159Z,991.37
2019-03-15T06:48:18.104Z,991.34
2019-03-15T06:49:17.994Z,991.32
2019-03-15T06:50:17.955Z,991.31
2019-03-15T06:51:17.879Z,991.29
2019-03-15T06:52:17.845Z,991.29
2019-03-15T06:53:17.799Z,991.24
2019-03-15T06:54:17.747Z,991.22
2019-03-15T06:55:17.675Z,991.19
2019-03-15T06:56:17.662Z,991.16
2019-03-15T06:57:17.551Z,991.14
2019-03-15T06:58:17.552Z,991.16
2019-03-15T06:59:17.457Z,991.11
2019-03-15T07:00:17.413Z,991.12
2019-03-15T07:01:17.334Z,991.15
2019-03-15T07:02:17.298Z,991.16
2019-03-15T07:03:17.277Z,991.14
2019-03-15T07:04:17.174Z,991.18
2019-03-15T07:05:17.120Z,991.16
2019-03-15T07:06:17.059Z,991.14
2019-03-15T07:07:17.054Z,991.11
2019-03-15T07:08:17.003Z,991.09
2019-03-15T07:09:16.956Z,991.10
2019-03-15T07:10:16.891Z,991.11
2019-03-15T07:11:16.788Z,991.11
2019-03-15T07:12:16.733Z,991.06
2019-03-15T07:13:16.690Z,991.06
2019-03-15T07:14:16.657Z,991.08
2019-03-15T07:15:16.644Z,991.07
2019-03-15T07:16:16.520Z,991.02
2019-03-15T07:17:16.459Z,990.96
2019-03-15T07:18:18.597Z,990.98
2019-03-15T07:19:25.682Z,991.01
2019-03-15T07:20:16.330Z,990.96
2019-03-15T07:21:16.289Z,990.94
2019-03-15T07:22:16.180Z,990.95
2019-03-15T07:23:16.147Z,990.95
2019-03-15T07:24:25.089Z,990.89
2019-03-15T07:25:16.079Z,990.91
2019-03-15T07:26:15.981Z,990.94
2019-03-15T07:27:15.946Z,990.95
2019-03-15T07:28:15.882Z,990.92
2019-03-15T07:29:18.842Z,990.93
2019-03-15T07:30:15.768Z,990.91
2019-03-15T07:31:15.709Z,990.86
2019-03-15T07:32:15.637Z,990.80
2019-03-15T07:33:15.593Z,990.78
2019-03-15T07:34:15.842Z,990.81
2019-03-15T07:35:15.483Z,990.79
2019-03-15T07:36:15.421Z,990.77
2019-03-15T07:37:15.377Z,990.79
2019-03-15T07:38:15.313Z,990.81
2019-03-15T07:39:15.372Z,990.80
2019-03-15T07:40:15.256Z,990.82
2019-03-15T07:41:15.171Z,990.80
2019-03-15T07:42:15.133Z,990.80
2019-03-15T07:43:15.159Z,990.81
2019-03-15T07:44:15.025Z,990.78
2019-03-15T07:45:15.040Z,990.80
2019-03-15T07:46:15.387Z,990.89
2019-03-15T07:47:14.865Z,990.93
2019-03-15T07:48:22.496Z,990.92
2019-03-15T07:49:14.769Z,990.94
2019-03-15T07:50:14.805Z,990.84
2019-03-15T07:51:14.613Z,990.81
2019-03-15T07:52:14.558Z,990.82
2019-03-15T07:53:14.500Z,990.75
2019-03-15T07:54:14.520Z,990.71
2019-03-15T07:55:14.400Z,990.66
2019-03-15T07:56:14.347Z,990.68
2019-03-15T07:57:14.291Z,990.67
2019-03-15T07:58:14.236Z,990.75
2019-03-15T07:59:14.221Z,990.80
2019-03-15T08:00:14.122Z,990.83
2019-03-15T08:01:14.058Z,990.80
2019-03-15T08:02:14.024Z,990.79
2019-03-15T08:03:13.969Z,990.73
2019-03-15T08:04:17.106Z,990.76
2019-03-15T08:05:13.839Z,990.71
2019-03-15T08:06:13.796Z,990.67
2019-03-15T08:07:13.752Z,990.72
2019-03-15T08:08:13.676Z,990.77
2019-03-15T08:09:13.693Z,990.76
2019-03-15T08:10:13.589Z,990.74
2019-03-15T08:11:13.532Z,990.74
2019-03-15T08:12:13.479Z,990.69
2019-03-15T08:13:13.417Z,990.66
2019-03-15T08:14:13.386Z,990.67
2019-03-15T08:15:13.301Z,990.70
2019-03-15T08:16:13.256Z,990.72
2019-03-15T08:17:13.194Z,990.74
2019-03-15T08:18:13.171Z,990.77
2019-03-15T08:19:13.134Z,990.72
2019-03-15T08:20:13.025Z,990.75
2019-03-15T08:21:12.980Z,990.66
2019-03-15T08:22:12.938Z,990.71
2019-03-15T08:23:12.876Z,990.64
2019-03-15T08:24:12.802Z,990.68
2019-03-15T08:25:12.803Z,990.60
2019-03-15T08:26:12.695Z,990.60
2019-03-15T08:27:15.925Z,990.60
2019-03-15T08:28:12.622Z,990.61
2019-03-15T08:29:12.535Z,990.62
2019-03-15T08:30:12.517Z,990.58
2019-03-15T08:31:12.458Z,990.56
2019-03-15T08:32:12.392Z,990.59
2019-03-15T08:33:12.334Z,990.55
2019-03-15T08:34:12.257Z,990.59
2019-03-15T08:35:12.249Z,990.54
2019-03-15T08:36:12.176Z,990.56
2019-03-15T08:37:12.125Z,990.60
2019-03-15T08:38:12.049Z,990.60
2019-03-15T08:39:11.997Z,990.57
2019-03-15T08:40:11.996Z,990.52
2019-03-15T08:41:11.898Z,990.45
2019-03-15T08:42:11.845Z,990.48
2019-03-15T08:43:11.794Z,990.45
2019-03-15T08:44:11.714Z,990.47
2019-03-15T08:45:11.707Z,990.49
2019-03-15T08:46:11.629Z,990.42
2019-03-15T08:47:11.553Z,990.41
2019-03-15T08:48:11.516Z,990.41
2019-03-15T08:49:11.541Z,990.33
2019-03-15T08:50:14.713Z,990.34
2019-03-15T08:51:11.359Z,990.34
2019-03-15T08:52:11.295Z,990.34
2019-03-15T08:53:11.225Z,990.35
2019-03-15T08:54:11.172Z,990.36
2019-03-15T08:55:11.139Z,990.28
2019-03-15T08:56:14.259Z,990.30
2019-03-15T08:57:11.016Z,990.25
2019-03-15T08:58:15.332Z,990.28
2019-03-15T08:59:10.895Z,990.26
2019-03-15T09:00:10.885Z,990.26
2019-03-15T09:01:11.157Z,990.24
2019-03-15T09:02:10.732Z,990.25
2019-03-15T09:03:10.717Z,990.24
2019-03-15T09:04:10.626Z,990.26
2019-03-15T09:05:10.615Z,990.25
2019-03-15T09:06:10.519Z,990.23
2019-03-15T09:07:10.476Z,990.24
2019-03-15T09:08:10.421Z,990.21
2019-03-15T09:09:10.381Z,990.18
2019-03-15T09:10:21.749Z,990.22
2019-03-15T09:11:10.265Z,990.28
2019-03-15T09:12:10.208Z,990.28
2019-03-15T09:13:10.145Z,990.30
2019-03-15T09:14:10.089Z,990.32
2019-03-15T09:15:10.067Z,990.27
2019-03-15T09:16:09.965Z,990.25
2019-03-15T09:17:09.916Z,990.22
2019-03-15T09:18:09.868Z,990.17
2019-03-15T09:19:09.811Z,990.10
2019-03-15T09:20:09.794Z,990.08
2019-03-15T09:21:09.701Z,990.02
2019-03-15T09:22:09.662Z,990.01
2019-03-15T09:23:09.605Z,990.00
2019-03-15T09:24:09.533Z,989.99
2019-03-15T09:25:19.322Z,990.05
2019-03-15T09:26:10.637Z,990.12
2019-03-15T09:27:10.695Z,990.09
2019-03-15T09:28:09.328Z,990.11
2019-03-15T09:29:09.279Z,990.12
2019-03-15T09:30:22.101Z,990.05
2019-03-15T09:31:09.197Z,990.02
2019-03-15T09:32:09.586Z,990.05
2019-03-15T09:33:09.055Z,990.00
2019-03-15T09:34:08.983Z,989.93
2019-03-15T09:35:08.995Z,989.92
2019-03-15T09:36:08.919Z,989.87
2019-03-15T09:37:08.827Z,989.84
2019-03-15T09:38:10.528Z,989.78
2019-03-15T09:39:08.719Z,989.77
2019-03-15T09:40:08.694Z,989.70
2019-03-15T09:41:08.642Z,989.70
2019-03-15T09:42:08.557Z,989.65
2019-03-15T09:43:08.512Z,989.64
2019-03-15T09:44:08.465Z,989.66
2019-03-15T09:45:08.395Z,989.62
2019-03-15T09:46:08.376Z,989.58
2019-03-15T09:47:08.743Z,989.53
2019-03-15T09:48:08.242Z,989.52
2019-03-15T09:49:08.187Z,989.51
2019-03-15T09:50:21.457Z,989.48
2019-03-15T09:51:08.096Z,989.48
2019-03-15T09:52:08.062Z,989.42
2019-03-15T09:53:07.992Z,989.35
2019-03-15T09:54:07.929Z,989.41
2019-03-15T09:55:07.857Z,989.40
2019-03-15T09:56:07.874Z,989.39
2019-03-15T09:57:07.786Z,989.40
2019-03-15T09:58:07.680Z,989.41
2019-03-15T09:59:07.654Z,989.44
2019-03-15T10:00:07.591Z,989.47
2019-03-15T10:01:07.838Z,989.42
2019-03-15T10:02:07.905Z,989.42
2019-03-15T10:03:21.236Z,989.42
2019-03-15T10:04:07.416Z,989.42
2019-03-15T10:05:11.304Z,989.46
2019-03-15T10:06:15.064Z,989.38
2019-03-15T10:07:07.220Z,989.31
2019-03-15T10:08:07.163Z,989.37
2019-03-15T10:09:07.098Z,989.36
2019-03-15T10:10:13.350Z,989.30
2019-03-15T10:11:07.009Z,989.31
2019-03-15T10:12:06.961Z,989.32
2019-03-15T10:13:06.932Z,989.26
2019-03-15T10:14:06.826Z,989.27
2019-03-15T10:15:08.106Z,989.15
2019-03-15T10:16:06.759Z,989.07
2019-03-15T10:17:06.732Z,989.05
2019-03-15T10:18:06.694Z,989.06
2019-03-15T10:19:06.620Z,989.18
2019-03-15T10:20:06.554Z,989.19
2019-03-15T10:21:09.170Z,989.23
2019-03-15T10:22:06.430Z,989.23
2019-03-15T10:23:06.656Z,989.23
2019-03-15T10:24:06.288Z,989.22
2019-03-15T10:25:06.281Z,989.23
2019-03-15T10:26:06.208Z,989.18
2019-03-15T10:27:06.139Z,989.16
2019-03-15T10:28:06.241Z,989.17
2019-03-15T10:29:15.305Z,989.16
2019-03-15T10:30:06.213Z,989.12
2019-03-15T10:31:05.936Z,989.10
2019-03-15T10:32:05.940Z,989.07
2019-03-15T10:33:05.791Z,989.03
2019-03-15T10:34:05.975Z,989.06
2019-03-15T10:35:05.680Z,988.96
2019-03-15T10:36:05.687Z,988.93
2019-03-15T10:37:06.284Z,988.92
2019-03-15T10:38:05.543Z,988.96
2019-03-15T10:39:05.475Z,988.89
2019-03-15T10:40:05.415Z,988.90
2019-03-15T10:41:05.405Z,988.91
2019-03-15T10:42:05.308Z,988.88
2019-03-15T10:43:05.261Z,988.90
2019-03-15T10:44:05.184Z,988.90
2019-03-15T10:45:05.144Z,988.91
2019-03-15T10:46:06.309Z,988.88
2019-03-15T10:47:05.115Z,988.85
2019-03-15T10:48:07.916Z,988.84
2019-03-15T10:49:04.948Z,988.88
2019-03-15T10:50:04.875Z,988.88
2019-03-15T10:51:04.817Z,988.87
2019-03-15T10:52:04.867Z,988.81
2019-03-15T10:53:04.701Z,988.85
2019-03-15T10:54:04.665Z,988.81
2019-03-15T10:55:04.671Z,988.85
2019-03-15T10:56:04.551Z,988.85
2019-03-15T10:57:04.536Z,988.84
2019-03-15T10:58:04.446Z,988.73
2019-03-15T10:59:04.412Z,988.65
2019-03-15T11:00:04.353Z,988.75
2019-03-15T11:01:04.269Z,988.76
2019-03-15T11:02:04.259Z,988.73
2019-03-15T11:03:04.180Z,988.75
2019-03-15T11:04:04.132Z,988.74
2019-03-15T11:05:04.063Z,988.73
2019-03-15T11:06:04.001Z,988.73
2019-03-15T11:07:03.999Z,988.73
2019-03-15T11:08:03.909Z,988.77
2019-03-15T11:09:03.858Z,988.76
2019-03-15T11:10:03.797Z,988.76
2019-03-15T11:11:03.722Z,988.72
2019-03-15T11:12:03.706Z,988.74
2019-03-15T11:13:03.634Z,988.67
2019-03-15T11:14:03.576Z,988.66
2019-03-15T11:15:03.525Z,988.66
2019-03-15T11:16:03.479Z,988.63
2019-03-15T11:17:03.443Z,988.65
2019-03-15T11:18:03.363Z,988.65
2019-03-15T11:19:03.307Z,988.64
2019-03-15T11:20:06.918Z,988.61
2019-03-15T11:21:03.241Z,988.60
2019-03-15T11:22:03.314Z,988.67
2019-03-15T11:23:03.207Z,988.59
2019-03-15T11:24:03.044Z,988.60
2019-03-15T11:25:02.987Z,988.66
2019-03-15T11:26:13.061Z,988.58
2019-03-15T11:27:02.900Z,988.67
2019-03-15T11:28:02.856Z,988.67
2019-03-15T11:29:02.772Z,988.65
2019-03-15T11:30:02.732Z,988.60
2019-03-15T11:31:02.660Z,988.64
2019-03-15T11:32:02.644Z,988.64
2019-03-15T11:33:02.583Z,988.67
2019-03-15T11:34:02.502Z,988.70
2019-03-15T11:35:02.469Z,988.70
2019-03-15T11:36:02.466Z,988.74
2019-03-15T11:37:03.590Z,988.79
2019-03-15T11:38:02.324Z,988.66
2019-03-15T11:39:02.237Z,988.77
2019-03-15T11:40:02.186Z,988.69
2019-03-15T11:41:02.121Z,988.70
2019-03-15T11:42:02.100Z,988.63
2019-03-15T11:43:02.017Z,988.67
2019-03-15T11:44:01.963Z,988.70
2019-03-15T11:45:01.917Z,988.63
2019-03-15T11:46:01.886Z,988.67
2019-03-15T11:47:02.001Z,988.62
2019-03-15T11:48:03.896Z,988.58
2019-03-15T11:49:01.707Z,988.51
2019-03-15T11:50:01.650Z,988.57
2019-03-15T11:51:01.591Z,988.69
2019-03-15T11:52:01.569Z,988.58
2019-03-15T11:53:01.508Z,988.61
2019-03-15T11:54:01.431Z,988.70
2019-03-15T11:55:01.383Z,988.72
2019-03-15T11:56:01.327Z,988.70
2019-03-15T11:57:01.298Z,988.63
2019-03-15T11:58:01.243Z,988.64
2019-03-15T11:59:01.168Z,988.62
2019-03-15T12:00:01.162Z,988.61
2019-03-15T12:01:01.080Z,988.60
2019-03-15T12:02:04.337Z,988.56
2019-03-15T12:03:01.018Z,988.59
2019-03-15T12:04:00.947Z,988.52
2019-03-15T12:05:00.860Z,988.49
2019-03-15T12:06:00.801Z,988.48
2019-03-15T12:07:00.761Z,988.53
2019-03-15T12:08:00.760Z,988.52
2019-03-15T12:09:00.640Z,988.50
2019-03-15T12:10:00.597Z,988.54
2019-03-15T12:11:00.535Z,988.51
2019-03-15T12:12:00.496Z,988.46
2019-03-15T12:13:00.472Z,988.57
2019-03-15T12:14:00.389Z,988.60
2019-03-15T12:15:00.326Z,988.68
2019-03-15T12:16:00.363Z,988.59
2019-03-15T12:17:00.210Z,988.56
2019-03-15T12:18:00.190Z,988.53
2019-03-15T12:19:00.118Z,988.53
2019-03-15T12:20:00.056Z,988.51
2019-03-15T12:21:00.017Z,988.46
2019-03-15T12:22:06.134Z,988.41
2019-03-15T12:22:59.930Z,988.39
2019-03-15T12:23:59.856Z,988.37
2019-03-15T12:24:59.799Z,988.44
2019-03-15T12:25:59.753Z,988.41
2019-03-15T12:26:59.697Z,988.44
2019-03-15T12:27:59.678Z,988.45
2019-03-15T12:28:59.599Z,988.36
2019-03-15T12:29:59.585Z,988.28